sensor_id;sensor_type;location;lat;lon;timestamp;pressure;altitude;pressure_sealevel;temperature;humidity
54262;BME280;40174;52.364;6.452;2023-02-03T00:02:04;102006.06;;;6.89;100.00
54262;BME280;40174;52.364;6.452;2023-02-03T00:04:31;102004.91;;;6.94;100.00
54262;BME280;40174;52.364;6.452;2023-02-03T00:06:58;102012.97;;;6.91;100.00
54262;BME280;40174;52.364;6.452;2023-02-03T00:09:25;102011.19;;;6.92;100.00
54262;BME280;40174;52.364;6.452;2023-02-03T00:11:52;102011.13;;;6.93;100.00
54262;BME280;40174;52.364;6.452;2023-02-03T00:14:19;102017.72;;;7.02;100.00
54262;BME280;40174;52.364;6.452;2023-02-03T00:16:46;102017.16;;;6.95;100.00
54262;BME280;40174;52.364;6.452;2023-02-03T00:19:14;102029.41;;;6.95;100.00
54262;BME280;40174;52.364;6.452;2023-02-03T00:21:40;102015.66;;;6.90;100.00
54262;BME280;40174;52.364;6.452;2023-02-03T00:24:07;102025.16;;;6.92;100.00
54262;BME280;40174;52.364;6.452;2023-02-03T00:26:34;102037.31;;;6.95;100.00
54262;BME280;40174;52.364;6.452;2023-02-03T00:29:05;102035.69;;;6.92;100.00
54262;BME280;40174;52.364;6.452;2023-02-03T00:31:33;102042.50;;;6.96;100.00
54262;BME280;40174;52.364;6.452;2023-02-03T00:34:00;102039.88;;;6.96;100.00
54262;BME280;40174;52.364;6.452;2023-02-03T00:36:28;102041.66;;;6.96;100.00
54262;BME280;40174;52.364;6.452;2023-02-03T00:38:54;102038.88;;;6.99;100.00
54262;BME280;40174;52.364;6.452;2023-02-03T00:41:22;102047.75;;;6.96;100.00
54262;BME280;40174;52.364;6.452;2023-02-03T00:43:50;102034.69;;;6.95;100.00
54262;BME280;40174;52.364;6.452;2023-02-03T00:46:17;102033.91;;;6.93;100.00
54262;BME280;40174;52.364;6.452;2023-02-03T00:48:43;102034.84;;;6.92;100.00
54262;BME280;40174;52.364;6.452;2023-02-03T00:51:11;102039.31;;;6.90;100.00
54262;BME280;40174;52.364;6.452;2023-02-03T00:53:39;102051.31;;;6.95;100.00
54262;BME280;40174;52.364;6.452;2023-02-03T00:56:06;102043.34;;;6.97;100.00
54262;BME280;40174;52.364;6.452;2023-02-03T00:58:37;102053.16;;;6.93;100.00
54262;BME280;40174;52.364;6.452;2023-02-03T01:01:04;102039.03;;;6.96;100.00
54262;BME280;40174;52.364;6.452;2023-02-03T01:03:31;102034.47;;;6.99;100.00
54262;BME280;40174;52.364;6.452;2023-02-03T01:06:07;102032.63;;;7.01;100.00
54262;BME280;40174;52.364;6.452;2023-02-03T01:08:34;102020.13;;;7.06;100.00
54262;BME280;40174;52.364;6.452;2023-02-03T01:11:06;102011.38;;;7.06;100.00
54262;BME280;40174;52.364;6.452;2023-02-03T01:13:33;102013.16;;;7.05;100.00
54262;BME280;40174;52.364;6.452;2023-02-03T01:16:00;102020.25;;;7.03;100.00
54262;BME280;40174;52.364;6.452;2023-02-03T01:18:26;102027.31;;;7.03;100.00
54262;BME280;40174;52.364;6.452;2023-02-03T01:20:53;102029.72;;;7.07;100.00
54262;BME280;40174;52.364;6.452;2023-02-03T01:23:19;102022.88;;;7.03;100.00
54262;BME280;40174;52.364;6.452;2023-02-03T01:25:46;102020.34;;;7.02;100.00
54262;BME280;40174;52.364;6.452;2023-02-03T01:28:14;102019.34;;;7.04;100.00
54262;BME280;40174;52.364;6.452;2023-02-03T01:30:41;102001.75;;;7.06;100.00
54262;BME280;40174;52.364;6.452;2023-02-03T01:33:07;101981.56;;;7.07;100.00
54262;BME280;40174;52.364;6.452;2023-02-03T01:35:34;101973.66;;;7.07;100.00
54262;BME280;40174;52.364;6.452;2023-02-03T01:38:01;101958.81;;;7.06;100.00
54262;BME280;40174;52.364;6.452;2023-02-03T01:40:28;101960.75;;;7.02;100.00
54262;BME280;40174;52.364;6.452;2023-02-03T01:42:54;101980.56;;;7.10;100.00
54262;BME280;40174;52.364;6.452;2023-02-03T01:45:23;101992.00;;;7.08;100.00
54262;BME280;40174;52.364;6.452;2023-02-03T01:47:53;101979.59;;;7.11;100.00
54262;BME280;40174;52.364;6.452;2023-02-03T01:50:24;101971.03;;;7.07;100.00
54262;BME280;40174;52.364;6.452;2023-02-03T01:52:56;101949.00;;;7.10;100.00
54262;BME280;40174;52.364;6.452;2023-02-03T01:55:26;101945.44;;;7.11;100.00
54262;BME280;40174;52.364;6.452;2023-02-03T01:57:58;101934.00;;;7.12;100.00
54262;BME280;40174;52.364;6.452;2023-02-03T02:00:28;101942.91;;;7.09;100.00
54262;BME280;40174;52.364;6.452;2023-02-03T02:02:58;101945.44;;;7.11;100.00
54262;BME280;40174;52.364;6.452;2023-02-03T02:05:29;101958.50;;;7.12;100.00
54262;BME280;40174;52.364;6.452;2023-02-03T02:07:58;101977.69;;;7.14;100.00
54262;BME280;40174;52.364;6.452;2023-02-03T02:10:28;101993.53;;;7.13;100.00
54262;BME280;40174;52.364;6.452;2023-02-03T02:12:55;101968.97;;;7.14;100.00
54262;BME280;40174;52.364;6.452;2023-02-03T02:15:25;101944.53;;;7.12;100.00
54262;BME280;40174;52.364;6.452;2023-02-03T02:18:08;101954.97;;;7.13;100.00
54262;BME280;40174;52.364;6.452;2023-02-03T02:20:52;101962.16;;;7.10;100.00
54262;BME280;40174;52.364;6.452;2023-02-03T02:26:50;101935.06;;;7.07;100.00
54262;BME280;40174;52.364;6.452;2023-02-03T02:29:33;101944.59;;;7.10;100.00
54262;BME280;40174;52.364;6.452;2023-02-03T02:32:14;101953.47;;;7.07;100.00
54262;BME280;40174;52.364;6.452;2023-02-03T02:34:52;101953.41;;;7.09;100.00
54262;BME280;40174;52.364;6.452;2023-02-03T02:37:33;101956.09;;;7.07;100.00
54262;BME280;40174;52.364;6.452;2023-02-03T02:40:11;101952.56;;;7.08;100.00
54262;BME280;40174;52.364;6.452;2023-02-03T02:42:48;101949.16;;;7.06;100.00
54262;BME280;40174;52.364;6.452;2023-02-03T02:45:23;101947.50;;;7.04;100.00
54262;BME280;40174;52.364;6.452;2023-02-03T02:47:59;101960.59;;;7.05;100.00
54262;BME280;40174;52.364;6.452;2023-02-03T02:50:30;101959.59;;;7.08;100.00
54262;BME280;40174;52.364;6.452;2023-02-03T02:52:58;101949.94;;;7.08;100.00
54262;BME280;40174;52.364;6.452;2023-02-03T02:55:27;101949.22;;;7.05;100.00
54262;BME280;40174;52.364;6.452;2023-02-03T02:58:03;101935.84;;;7.10;100.00
54262;BME280;40174;52.364;6.452;2023-02-03T03:00:33;101946.22;;;7.13;100.00
54262;BME280;40174;52.364;6.452;2023-02-03T03:03:13;101949.63;;;7.15;100.00
54262;BME280;40174;52.364;6.452;2023-02-03T03:05:43;101951.56;;;7.11;100.00
54262;BME280;40174;52.364;6.452;2023-02-03T03:08:19;101962.00;;;7.13;100.00
54262;BME280;40174;52.364;6.452;2023-02-03T03:10:48;101955.75;;;7.15;100.00
54262;BME280;40174;52.364;6.452;2023-02-03T03:13:21;101941.72;;;7.15;100.00
54262;BME280;40174;52.364;6.452;2023-02-03T03:15:51;101941.72;;;7.15;100.00
54262;BME280;40174;52.364;6.452;2023-02-03T03:18:22;101940.97;;;7.13;100.00
54262;BME280;40174;52.364;6.452;2023-02-03T03:20:50;101935.69;;;7.13;100.00
54262;BME280;40174;52.364;6.452;2023-02-03T03:23:23;101947.16;;;7.12;100.00
54262;BME280;40174;52.364;6.452;2023-02-03T03:25:58;101932.28;;;7.11;100.00
54262;BME280;40174;52.364;6.452;2023-02-03T03:28:28;101928.81;;;7.10;100.00
54262;BME280;40174;52.364;6.452;2023-02-03T03:30:56;101934.84;;;7.12;100.00
54262;BME280;40174;52.364;6.452;2023-02-03T03:33:24;101938.53;;;7.08;100.00
54262;BME280;40174;52.364;6.452;2023-02-03T03:35:55;101933.22;;;7.10;100.00
54262;BME280;40174;52.364;6.452;2023-02-03T03:38:27;101934.91;;;7.11;100.00
54262;BME280;40174;52.364;6.452;2023-02-03T03:41:00;101941.13;;;7.10;100.00
54262;BME280;40174;52.364;6.452;2023-02-03T03:43:31;101943.59;;;7.13;100.00
54262;BME280;40174;52.364;6.452;2023-02-03T03:46:03;101929.59;;;7.12;100.00
54262;BME280;40174;52.364;6.452;2023-02-03T03:48:36;101922.50;;;7.14;100.00
54262;BME280;40174;52.364;6.452;2023-02-03T03:51:07;101914.44;;;7.17;100.00
54262;BME280;40174;52.364;6.452;2023-02-03T03:53:39;101918.94;;;7.15;100.00
54262;BME280;40174;52.364;6.452;2023-02-03T03:56:11;101910.19;;;7.15;100.00
54262;BME280;40174;52.364;6.452;2023-02-03T03:58:42;101909.50;;;7.11;100.00
54262;BME280;40174;52.364;6.452;2023-02-03T04:01:12;101911.34;;;7.09;100.00
54262;BME280;40174;52.364;6.452;2023-02-03T04:03:44;101929.47;;;7.15;100.00
54262;BME280;40174;52.364;6.452;2023-02-03T04:06:12;101919.13;;;7.11;100.00
54262;BME280;40174;52.364;6.452;2023-02-03T04:08:38;101929.38;;;7.17;100.00
54262;BME280;40174;52.364;6.452;2023-02-03T04:11:05;101934.72;;;7.15;100.00
54262;BME280;40174;52.364;6.452;2023-02-03T04:13:32;101925.84;;;7.18;100.00
54262;BME280;40174;52.364;6.452;2023-02-03T04:15:59;101936.19;;;7.21;100.00
54262;BME280;40174;52.364;6.452;2023-02-03T04:18:25;101934.41;;;7.21;100.00
54262;BME280;40174;52.364;6.452;2023-02-03T04:20:54;101929.31;;;7.18;100.00
54262;BME280;40174;52.364;6.452;2023-02-03T04:23:20;101920.41;;;7.21;100.00
54262;BME280;40174;52.364;6.452;2023-02-03T04:25:47;101930.09;;;7.20;100.00
54262;BME280;40174;52.364;6.452;2023-02-03T04:28:13;101950.13;;;7.23;100.00
54262;BME280;40174;52.364;6.452;2023-02-03T04:30:40;101908.94;;;7.22;100.00
54262;BME280;40174;52.364;6.452;2023-02-03T04:33:07;101919.56;;;7.20;100.00
54262;BME280;40174;52.364;6.452;2023-02-03T04:35:33;101925.50;;;7.24;100.00
54262;BME280;40174;52.364;6.452;2023-02-03T04:38:01;101917.50;;;7.27;100.00
54262;BME280;40174;52.364;6.452;2023-02-03T04:40:28;101916.47;;;7.29;100.00
54262;BME280;40174;52.364;6.452;2023-02-03T04:42:54;101910.16;;;7.34;100.00
54262;BME280;40174;52.364;6.452;2023-02-03T04:45:21;101909.31;;;7.33;100.00
54262;BME280;40174;52.364;6.452;2023-02-03T04:47:50;101901.09;;;7.39;100.00
54262;BME280;40174;52.364;6.452;2023-02-03T04:50:17;101900.19;;;7.40;100.00
54262;BME280;40174;52.364;6.452;2023-02-03T04:52:44;101910.16;;;7.34;100.00
54262;BME280;40174;52.364;6.452;2023-02-03T04:55:11;101902.94;;;7.37;100.00
54262;BME280;40174;52.364;6.452;2023-02-03T04:57:38;101907.13;;;7.41;100.00
54262;BME280;40174;52.364;6.452;2023-02-03T05:00:06;101909.91;;;7.38;100.00
54262;BME280;40174;52.364;6.452;2023-02-03T05:02:36;101905.44;;;7.40;100.00
54262;BME280;40174;52.364;6.452;2023-02-03T05:05:02;101913.22;;;7.42;100.00
54262;BME280;40174;52.364;6.452;2023-02-03T05:07:29;101901.94;;;7.40;100.00
54262;BME280;40174;52.364;6.452;2023-02-03T05:09:56;101894.03;;;7.40;100.00
54262;BME280;40174;52.364;6.452;2023-02-03T05:12:24;101909.16;;;7.36;100.00
54262;BME280;40174;52.364;6.452;2023-02-03T05:14:50;101907.13;;;7.41;100.00
54262;BME280;40174;52.364;6.452;2023-02-03T05:17:17;101915.00;;;7.41;100.00
54262;BME280;40174;52.364;6.452;2023-02-03T05:19:43;101917.66;;;7.41;100.00
54262;BME280;40174;52.364;6.452;2023-02-03T05:22:10;101908.19;;;7.37;100.00
54262;BME280;40174;52.364;6.452;2023-02-03T05:24:36;101904.25;;;7.46;100.00
54262;BME280;40174;52.364;6.452;2023-02-03T05:27:03;101913.16;;;7.43;100.00
54262;BME280;40174;52.364;6.452;2023-02-03T05:29:31;101908.38;;;7.52;100.00
54262;BME280;40174;52.364;6.452;2023-02-03T05:31:57;101906.66;;;7.50;100.00
54262;BME280;40174;52.364;6.452;2023-02-03T05:34:24;101918.19;;;7.48;100.00
54262;BME280;40174;52.364;6.452;2023-02-03T05:36:51;101908.38;;;7.52;100.00
54262;BME280;40174;52.364;6.452;2023-02-03T05:39:17;101897.75;;;7.53;100.00
54262;BME280;40174;52.364;6.452;2023-02-03T05:41:44;101907.31;;;7.56;100.00
54262;BME280;40174;52.364;6.452;2023-02-03T05:44:19;101909.84;;;7.57;100.00
54262;BME280;40174;52.364;6.452;2023-02-03T05:46:47;101914.88;;;7.62;100.00
54262;BME280;40174;52.364;6.452;2023-02-03T05:49:14;101917.91;;;7.54;100.00
54262;BME280;40174;52.364;6.452;2023-02-03T05:51:41;101902.13;;;7.54;100.00
54262;BME280;40174;52.364;6.452;2023-02-03T05:54:08;101911.47;;;7.60;100.00
54262;BME280;40174;52.364;6.452;2023-02-03T05:56:34;101911.56;;;7.58;100.00
54262;BME280;40174;52.364;6.452;2023-02-03T05:59:01;101915.19;;;7.56;100.00
54262;BME280;40174;52.364;6.452;2023-02-03T06:01:28;101904.34;;;7.62;100.00
54262;BME280;40174;52.364;6.452;2023-02-03T06:03:56;101917.44;;;7.63;100.00
54262;BME280;40174;52.364;6.452;2023-02-03T06:06:23;101908.75;;;7.61;100.00
54262;BME280;40174;52.364;6.452;2023-02-03T06:08:49;101902.72;;;7.59;100.00
54262;BME280;40174;52.364;6.452;2023-02-03T06:11:20;101897.38;;;7.61;100.00
54262;BME280;40174;52.364;6.452;2023-02-03T06:13:48;101899.00;;;7.63;100.00
54262;BME280;40174;52.364;6.452;2023-02-03T06:16:15;101895.66;;;7.60;100.00
54262;BME280;40174;52.364;6.452;2023-02-03T06:18:42;101897.94;;;7.67;100.00
54262;BME280;40174;52.364;6.452;2023-02-03T06:21:09;101895.38;;;7.66;100.00
54262;BME280;40174;52.364;6.452;2023-02-03T06:23:36;101903.19;;;7.67;100.00
54262;BME280;40174;52.364;6.452;2023-02-03T06:26:03;101928.13;;;7.60;100.00
54262;BME280;40174;52.364;6.452;2023-02-03T06:28:29;101918.38;;;7.62;100.00
54262;BME280;40174;52.364;6.452;2023-02-03T06:30:57;101917.50;;;7.62;100.00
54262;BME280;40174;52.364;6.452;2023-02-03T06:33:24;101930.28;;;7.69;100.00
54262;BME280;40174;52.364;6.452;2023-02-03T06:35:52;101926.03;;;7.67;100.00
54262;BME280;40174;52.364;6.452;2023-02-03T06:38:20;101942.78;;;7.64;100.00
54262;BME280;40174;52.364;6.452;2023-02-03T06:40:47;101940.94;;;7.66;100.00
54262;BME280;40174;52.364;6.452;2023-02-03T06:43:14;101936.47;;;7.68;100.00
54262;BME280;40174;52.364;6.452;2023-02-03T06:45:41;101930.41;;;7.66;100.00
54262;BME280;40174;52.364;6.452;2023-02-03T06:48:10;101926.03;;;7.67;100.00
54262;BME280;40174;52.364;6.452;2023-02-03T06:50:36;101937.34;;;7.69;100.00
54262;BME280;40174;52.364;6.452;2023-02-03T06:53:03;101932.81;;;7.71;100.00
54262;BME280;40174;52.364;6.452;2023-02-03T06:55:31;101927.56;;;7.71;100.00
54262;BME280;40174;52.364;6.452;2023-02-03T06:57:57;101928.56;;;7.68;100.00
54262;BME280;40174;52.364;6.452;2023-02-03T07:00:24;101931.06;;;7.72;100.00
54262;BME280;40174;52.364;6.452;2023-02-03T07:02:55;101905.59;;;7.72;100.00
54262;BME280;40174;52.364;6.452;2023-02-03T07:05:23;101918.75;;;7.72;100.00
54262;BME280;40174;52.364;6.452;2023-02-03T07:07:50;101923.00;;;7.75;100.00
54262;BME280;40174;52.364;6.452;2023-02-03T07:10:17;101924.78;;;7.74;100.00
54262;BME280;40174;52.364;6.452;2023-02-03T07:12:45;101931.91;;;7.72;100.00
54262;BME280;40174;52.364;6.452;2023-02-03T07:15:12;101925.47;;;7.78;100.00
54262;BME280;40174;52.364;6.452;2023-02-03T07:17:39;101921.91;;;7.79;100.00
54262;BME280;40174;52.364;6.452;2023-02-03T07:20:06;101934.38;;;7.75;100.00
54262;BME280;40174;52.364;6.452;2023-02-03T07:22:33;101922.06;;;7.76;100.00
54262;BME280;40174;52.364;6.452;2023-02-03T07:25:00;101923.84;;;7.75;100.00
54262;BME280;40174;52.364;6.452;2023-02-03T07:27:27;101939.72;;;7.74;100.00
54262;BME280;40174;52.364;6.452;2023-02-03T07:29:57;101938.19;;;7.69;100.00
54262;BME280;40174;52.364;6.452;2023-02-03T07:32:23;101945.28;;;7.67;100.00
54262;BME280;40174;52.364;6.452;2023-02-03T07:34:50;101938.41;;;7.65;100.00
54262;BME280;40174;52.364;6.452;2023-02-03T07:37:16;101954.19;;;7.65;100.00
54262;BME280;40174;52.364;6.452;2023-02-03T07:39:43;101948.06;;;7.64;100.00
54262;BME280;40174;52.364;6.452;2023-02-03T07:42:10;101945.22;;;7.69;100.00
54262;BME280;40174;52.364;6.452;2023-02-03T07:44:42;101958.53;;;7.66;100.00
54262;BME280;40174;52.364;6.452;2023-02-03T07:47:10;101963.94;;;7.63;100.00
54262;BME280;40174;52.364;6.452;2023-02-03T07:49:37;101971.44;;;7.70;100.00
54262;BME280;40174;52.364;6.452;2023-02-03T07:52:03;101965.28;;;7.72;100.00
54262;BME280;40174;52.364;6.452;2023-02-03T07:54:30;101982.69;;;7.74;100.00
54262;BME280;40174;52.364;6.452;2023-02-03T07:56:56;101974.69;;;7.76;100.00
54262;BME280;40174;52.364;6.452;2023-02-03T07:59:23;101972.06;;;7.76;100.00
54262;BME280;40174;52.364;6.452;2023-02-03T08:01:50;101985.75;;;7.82;100.00
54262;BME280;40174;52.364;6.452;2023-02-03T08:04:21;101987.66;;;7.80;100.00
54262;BME280;40174;52.364;6.452;2023-02-03T08:06:48;102007.81;;;7.80;100.00
54262;BME280;40174;52.364;6.452;2023-02-03T08:09:15;101978.09;;;7.78;100.00
54262;BME280;40174;52.364;6.452;2023-02-03T08:11:42;101985.16;;;7.77;100.00
54262;BME280;40174;52.364;6.452;2023-02-03T08:14:08;101997.06;;;7.84;100.00
54262;BME280;40174;52.364;6.452;2023-02-03T08:16:35;101974.09;;;7.88;100.00
54262;BME280;40174;52.364;6.452;2023-02-03T08:19:01;101976.47;;;7.93;100.00
54262;BME280;40174;52.364;6.452;2023-02-03T08:21:29;101977.50;;;7.90;100.00
54262;BME280;40174;52.364;6.452;2023-02-03T08:23:56;101975.72;;;7.90;100.00
54262;BME280;40174;52.364;6.452;2023-02-03T08:26:23;101982.69;;;7.91;100.00
54262;BME280;40174;52.364;6.452;2023-02-03T08:28:49;101967.03;;;7.88;100.00
54262;BME280;40174;52.364;6.452;2023-02-03T08:31:16;101971.38;;;7.89;100.00
54262;BME280;40174;52.364;6.452;2023-02-03T08:33:43;101967.81;;;7.90;100.00
54262;BME280;40174;52.364;6.452;2023-02-03T08:36:10;101964.16;;;7.93;100.00
54262;BME280;40174;52.364;6.452;2023-02-03T08:38:38;101970.97;;;7.97;100.00
54262;BME280;40174;52.364;6.452;2023-02-03T08:41:08;101978.09;;;7.95;100.00
54262;BME280;40174;52.364;6.452;2023-02-03T08:43:35;101996.78;;;7.90;100.00
54262;BME280;40174;52.364;6.452;2023-02-03T08:46:02;102005.38;;;7.94;100.00
54262;BME280;40174;52.364;6.452;2023-02-03T08:48:29;101998.94;;;8.00;100.00
54262;BME280;40174;52.364;6.452;2023-02-03T08:50:55;102009.16;;;8.06;100.00
54262;BME280;40174;52.364;6.452;2023-02-03T08:53:22;102004.75;;;8.06;100.00
54262;BME280;40174;52.364;6.452;2023-02-03T08:55:50;101990.03;;;8.02;100.00
54262;BME280;40174;52.364;6.452;2023-02-03T08:58:17;101993.44;;;8.04;100.00
54262;BME280;40174;52.364;6.452;2023-02-03T09:00:44;102003.97;;;8.04;100.00
54262;BME280;40174;52.364;6.452;2023-02-03T09:03:14;101998.47;;;8.09;100.00
54262;BME280;40174;52.364;6.452;2023-02-03T09:05:40;101998.47;;;8.09;100.00
54262;BME280;40174;52.364;6.452;2023-02-03T09:08:07;102007.22;;;8.09;100.00
54262;BME280;40174;52.364;6.452;2023-02-03T09:10:35;102007.00;;;8.14;100.00
54262;BME280;40174;52.364;6.452;2023-02-03T09:13:03;102012.25;;;8.14;100.00
54262;BME280;40174;52.364;6.452;2023-02-03T09:15:31;102013.19;;;8.13;100.00
54262;BME280;40174;52.364;6.452;2023-02-03T09:17:57;102017.53;;;8.14;100.00
54262;BME280;40174;52.364;6.452;2023-02-03T09:20:24;102008.84;;;8.12;100.00
54262;BME280;40174;52.364;6.452;2023-02-03T09:22:50;102016.75;;;8.12;100.00
54262;BME280;40174;52.364;6.452;2023-02-03T09:25:19;102014.72;;;8.17;100.00
54262;BME280;40174;52.364;6.452;2023-02-03T09:27:45;102013.88;;;8.17;100.00
54262;BME280;40174;52.364;6.452;2023-02-03T09:30:14;102016.53;;;8.17;100.00
54262;BME280;40174;52.364;6.452;2023-02-03T09:32:40;102010.47;;;8.15;100.00
54262;BME280;40174;52.364;6.452;2023-02-03T09:35:07;102010.63;;;8.11;100.00
54262;BME280;40174;52.364;6.452;2023-02-03T09:37:33;102022.56;;;8.19;100.00
54262;BME280;40174;52.364;6.452;2023-02-03T09:40:00;102044.47;;;8.19;100.00
54262;BME280;40174;52.364;6.452;2023-02-03T09:42:35;102042.44;;;8.24;100.00
54262;BME280;40174;52.364;6.452;2023-02-03T09:45:17;102033.47;;;8.28;100.00
54262;BME280;40174;52.364;6.452;2023-02-03T09:47:46;102036.81;;;8.32;100.00
54262;BME280;40174;52.364;6.452;2023-02-03T09:50:20;102037.03;;;8.27;100.00
54262;BME280;40174;52.364;6.452;2023-02-03T09:52:49;102035.84;;;8.33;100.00
54262;BME280;40174;52.364;6.452;2023-02-03T09:55:25;102033.16;;;8.35;100.00
54262;BME280;40174;52.364;6.452;2023-02-03T09:58:00;102055.31;;;8.30;100.00
54262;BME280;40174;52.364;6.452;2023-02-03T10:00:32;102057.72;;;8.35;100.00
54262;BME280;40174;52.364;6.452;2023-02-03T10:03:05;102035.69;;;8.36;100.00
54262;BME280;40174;52.364;6.452;2023-02-03T10:05:48;102048.00;;;8.36;100.00
54262;BME280;40174;52.364;6.452;2023-02-03T10:08:25;102032.38;;;8.32;100.00
54262;BME280;40174;52.364;6.452;2023-02-03T10:11:01;102044.38;;;8.38;100.00
54262;BME280;40174;52.364;6.452;2023-02-03T10:13:44;102050.59;;;8.37;100.00
54262;BME280;40174;52.364;6.452;2023-02-03T10:16:24;102067.53;;;8.31;100.00
54262;BME280;40174;52.364;6.452;2023-02-03T10:18:56;102063.81;;;8.36;100.00
54262;BME280;40174;52.364;6.452;2023-02-03T10:21:33;102061.34;;;8.32;100.00
54262;BME280;40174;52.364;6.452;2023-02-03T10:24:03;102065.91;;;8.29;100.00
54262;BME280;40174;52.364;6.452;2023-02-03T10:26:32;102084.34;;;8.29;100.00
54262;BME280;40174;52.364;6.452;2023-02-03T10:29:05;102079.72;;;8.34;100.00
54262;BME280;40174;52.364;6.452;2023-02-03T10:31:35;102084.47;;;8.27;100.00
54262;BME280;40174;52.364;6.452;2023-02-03T10:34:08;102084.53;;;8.26;100.00
54262;BME280;40174;52.364;6.452;2023-02-03T10:36:51;102088.78;;;8.28;100.00
54262;BME280;40174;52.364;6.452;2023-02-03T10:39:26;102101.34;;;8.23;100.00
54262;BME280;40174;52.364;6.452;2023-02-03T10:41:54;102099.56;;;8.24;100.00
54262;BME280;40174;52.364;6.452;2023-02-03T10:44:26;102102.41;;;8.19;100.00
54262;BME280;40174;52.364;6.452;2023-02-03T10:46:56;102100.09;;;8.13;100.00
54262;BME280;40174;52.364;6.452;2023-02-03T10:49:25;102096.59;;;8.12;100.00
54262;BME280;40174;52.364;6.452;2023-02-03T10:51:54;102107.13;;;8.12;100.00
54262;BME280;40174;52.364;6.452;2023-02-03T10:54:26;102117.50;;;8.16;100.00
54262;BME280;40174;52.364;6.452;2023-02-03T10:56:55;102118.50;;;8.13;100.00
54262;BME280;40174;52.364;6.452;2023-02-03T10:59:28;102118.38;;;8.16;100.00
54262;BME280;40174;52.364;6.452;2023-02-03T11:01:57;102125.56;;;8.12;100.00
54262;BME280;40174;52.364;6.452;2023-02-03T11:04:25;102120.31;;;8.12;100.00
54262;BME280;40174;52.364;6.452;2023-02-03T11:06:54;102121.22;;;8.11;100.00
54262;BME280;40174;52.364;6.452;2023-02-03T11:09:30;102131.06;;;8.08;100.00
54262;BME280;40174;52.364;6.452;2023-02-03T11:12:05;102136.09;;;8.12;100.00
54262;BME280;40174;52.364;6.452;2023-02-03T11:14:35;102134.25;;;8.15;100.00
54262;BME280;40174;52.364;6.452;2023-02-03T11:17:07;102113.97;;;8.17;100.00
54262;BME280;40174;52.364;6.452;2023-02-03T11:19:36;102122.72;;;8.17;100.00
54262;BME280;40174;52.364;6.452;2023-02-03T11:22:04;102125.63;;;8.11;100.00
54262;BME280;40174;52.364;6.452;2023-02-03T11:24:32;102116.97;;;8.09;100.00
54262;BME280;40174;52.364;6.452;2023-02-03T11:27:04;102114.25;;;8.10;100.00
54262;BME280;40174;52.364;6.452;2023-02-03T11:29:33;102137.72;;;8.15;100.00
54262;BME280;40174;52.364;6.452;2023-02-03T11:32:02;102150.13;;;8.13;100.00
54262;BME280;40174;52.364;6.452;2023-02-03T11:34:33;102135.94;;;8.16;100.00
54262;BME280;40174;52.364;6.452;2023-02-03T11:37:25;102120.00;;;8.19;100.00
54262;BME280;40174;52.364;6.452;2023-02-03T11:40:13;102140.97;;;8.20;100.00
54262;BME280;40174;52.364;6.452;2023-02-03T11:42:59;102147.75;;;8.26;100.00
54262;BME280;40174;52.364;6.452;2023-02-03T11:45:28;102152.47;;;8.19;100.00
54262;BME280;40174;52.364;6.452;2023-02-03T11:47:58;102156.72;;;8.22;100.00
54262;BME280;40174;52.364;6.452;2023-02-03T11:50:30;102163.91;;;8.18;100.00
54262;BME280;40174;52.364;6.452;2023-02-03T11:53:08;102159.56;;;8.17;100.00
54262;BME280;40174;52.364;6.452;2023-02-03T11:55:57;102161.03;;;8.23;100.00
54262;BME280;40174;52.364;6.452;2023-02-03T11:58:51;102173.53;;;8.19;100.00
54262;BME280;40174;52.364;6.452;2023-02-03T12:01:33;102189.34;;;8.19;100.00
54262;BME280;40174;52.364;6.452;2023-02-03T12:04:20;102189.25;;;8.21;100.00
54262;BME280;40174;52.364;6.452;2023-02-03T12:07:10;102186.47;;;8.24;100.00
54262;BME280;40174;52.364;6.452;2023-02-03T12:09:49;102180.19;;;8.26;100.00
54262;BME280;40174;52.364;6.452;2023-02-03T12:12:29;102182.06;;;8.24;100.00
54262;BME280;40174;52.364;6.452;2023-02-03T12:15:13;102194.22;;;8.27;100.00
54262;BME280;40174;52.364;6.452;2023-02-03T12:17:55;102193.38;;;8.26;100.00
54262;BME280;40174;52.364;6.452;2023-02-03T12:20:37;102201.19;;;8.28;100.00
54262;BME280;40174;52.364;6.452;2023-02-03T12:23:16;102193.22;;;8.29;100.00
54262;BME280;40174;52.364;6.452;2023-02-03T12:25:59;102202.91;;;8.29;100.00
54262;BME280;40174;52.364;6.452;2023-02-03T12:28:45;102202.13;;;8.27;100.00
54262;BME280;40174;52.364;6.452;2023-02-03T12:31:19;102206.38;;;8.29;100.00
54262;BME280;40174;52.364;6.452;2023-02-03T12:33:56;102211.75;;;8.28;100.00
54262;BME280;40174;52.364;6.452;2023-02-03T12:36:28;102217.91;;;8.27;100.00
54262;BME280;40174;52.364;6.452;2023-02-03T12:38:59;102218.56;;;8.32;100.00
54262;BME280;40174;52.364;6.452;2023-02-03T12:41:31;102215.94;;;8.32;100.00
54262;BME280;40174;52.364;6.452;2023-02-03T12:44:04;102234.72;;;8.24;100.00
54262;BME280;40174;52.364;6.452;2023-02-03T12:46:37;102226.81;;;8.24;100.00
54262;BME280;40174;52.364;6.452;2023-02-03T12:49:13;102219.88;;;8.23;100.00
54262;BME280;40174;52.364;6.452;2023-02-03T12:51:44;102218.06;;;8.24;100.00
54262;BME280;40174;52.364;6.452;2023-02-03T12:54:24;102215.50;;;8.22;100.00
54262;BME280;40174;52.364;6.452;2023-02-03T12:56:57;102215.38;;;8.25;100.00
54262;BME280;40174;52.364;6.452;2023-02-03T12:59:28;102206.75;;;8.22;100.00
54262;BME280;40174;52.364;6.452;2023-02-03T13:01:58;102220.94;;;8.19;100.00
54262;BME280;40174;52.364;6.452;2023-02-03T13:04:32;102219.00;;;8.23;100.00
54262;BME280;40174;52.364;6.452;2023-02-03T13:07:06;102211.31;;;8.18;100.00
54262;BME280;40174;52.364;6.452;2023-02-03T13:09:40;102214.94;;;8.16;100.00